sensor_id;sensor_type;location;lat;lon;timestamp;pressure;altitude;pressure_sealevel;temperature;humidity
21869;BME280;11099;41.564;23.296;2022-10-31T07:08:37;60703.47;;;-143.80;100.00
21869;BME280;11099;41.564;23.296;2022-10-31T07:11:02;60703.47;;;-143.80;100.00
21869;BME280;11099;41.564;23.296;2022-10-31T07:19:03;60703.47;;;-143.80;100.00
21869;BME280;11099;41.564;23.296;2022-10-31T07:39:12;60703.47;;;-143.80;100.00
21869;BME280;11099;41.564;23.296;2022-10-31T07:46:59;60703.47;;;-143.80;100.00
21869;BME280;11099;41.564;23.296;2022-10-31T07:49:25;60703.47;;;-143.80;100.00
21869;BME280;11099;41.564;23.296;2022-10-31T07:51:50;60703.47;;;-143.80;100.00
21869;BME280;11099;41.564;23.296;2022-10-31T07:54:16;98134.81;;;21.49;nan
21869;BME280;11099;41.564;23.296;2022-10-31T07:56:42;98130.69;;;21.59;nan
21869;BME280;11099;41.564;23.296;2022-10-31T08:02:07;98130.06;;;21.43;nan
21869;BME280;11099;41.564;23.296;2022-10-31T08:04:33;98091.81;;;21.02;nan
21869;BME280;11099;41.564;23.296;2022-10-31T08:06:59;98093.59;;;21.63;nan
21869;BME280;11099;41.564;23.296;2022-10-31T08:09:24;98095.59;;;21.20;nan
21869;BME280;11099;41.564;23.296;2022-10-31T08:14:52;98117.69;;;21.95;nan
21869;BME280;11099;41.564;23.296;2022-10-31T08:17:18;98093.72;;;20.78;nan
21869;BME280;11099;41.564;23.296;2022-10-31T08:19:43;98099.06;;;20.98;nan
21869;BME280;11099;41.564;23.296;2022-10-31T08:22:09;98115.22;;;21.14;nan
21869;BME280;11099;41.564;23.296;2022-10-31T08:24:34;98126.84;;;21.60;nan
21869;BME280;11099;41.564;23.296;2022-10-31T08:27:00;98092.88;;;21.20;nan
21869;BME280;11099;41.564;23.296;2022-10-31T08:29:25;98106.66;;;21.57;nan
21869;BME280;11099;41.564;23.296;2022-10-31T08:31:51;98103.22;;;21.34;nan
21869;BME280;11099;41.564;23.296;2022-10-31T08:34:16;98118.81;;;21.67;nan
21869;BME280;11099;41.564;23.296;2022-10-31T08:36:42;98090.97;;;21.97;nan
21869;BME280;11099;41.564;23.296;2022-10-31T08:47:20;98103.97;;;22.11;nan
21869;BME280;11099;41.564;23.296;2022-10-31T08:49:46;98107.81;;;22.70;nan
21869;BME280;11099;41.564;23.296;2022-10-31T08:52:12;98084.44;;;21.98;nan
21869;BME280;11099;41.564;23.296;2022-10-31T08:54:37;98107.75;;;22.66;nan
21869;BME280;11099;41.564;23.296;2022-10-31T08:57:03;98090.97;;;22.91;nan
21869;BME280;11099;41.564;23.296;2022-10-31T08:59:28;98126.63;;;23.26;nan
21869;BME280;11099;41.564;23.296;2022-10-31T09:01:54;98115.25;;;23.13;nan
21869;BME280;11099;41.564;23.296;2022-10-31T09:04:19;98101.50;;;22.96;nan
21869;BME280;11099;41.564;23.296;2022-10-31T09:06:45;98122.78;;;23.34;nan
21869;BME280;11099;41.564;23.296;2022-10-31T09:09:10;98116.22;;;23.35;nan
21869;BME280;11099;41.564;23.296;2022-10-31T09:11:36;98075.59;;;23.05;nan
21869;BME280;11099;41.564;23.296;2022-10-31T09:14:01;98098.44;;;23.01;nan
21869;BME280;11099;41.564;23.296;2022-10-31T09:16:27;98084.75;;;22.90;nan
21869;BME280;11099;41.564;23.296;2022-10-31T09:18:52;98118.47;;;23.26;nan
21869;BME280;11099;41.564;23.296;2022-10-31T09:21:18;98062.22;;;22.86;nan
21869;BME280;11099;41.564;23.296;2022-10-31T09:23:43;98081.94;;;23.20;nan
21869;BME280;11099;41.564;23.296;2022-10-31T09:26:09;98083.13;;;22.85;nan
21869;BME280;11099;41.564;23.296;2022-10-31T09:28:34;98118.03;;;22.83;nan
21869;BME280;11099;41.564;23.296;2022-10-31T09:31:00;98090.56;;;22.55;nan
21869;BME280;11099;41.564;23.296;2022-10-31T09:33:26;98083.25;;;22.96;nan
21869;BME280;11099;41.564;23.296;2022-10-31T09:35:51;98096.84;;;22.96;nan
21869;BME280;11099;41.564;23.296;2022-10-31T09:38:19;98107.88;;;23.14;nan
21869;BME280;11099;41.564;23.296;2022-10-31T09:40:48;98092.56;;;22.92;nan
21869;BME280;11099;41.564;23.296;2022-10-31T09:46:08;98098.59;;;23.63;nan
21869;BME280;11099;41.564;23.296;2022-10-31T09:51:42;98054.66;;;24.27;nan
21869;BME280;11099;41.564;23.296;2022-10-31T09:54:17;98068.56;;;24.11;nan
21869;BME280;11099;41.564;23.296;2022-10-31T09:56:43;98092.81;;;24.37;nan
21869;BME280;11099;41.564;23.296;2022-10-31T09:59:30;98078.53;;;24.65;nan
21869;BME280;11099;41.564;23.296;2022-10-31T10:02:01;98038.44;;;24.48;nan
21869;BME280;11099;41.564;23.296;2022-10-31T10:04:33;98073.00;;;24.44;nan
21869;BME280;11099;41.564;23.296;2022-10-31T10:07:10;98041.88;;;24.38;nan
21869;BME280;11099;41.564;23.296;2022-10-31T10:09:36;98038.81;;;24.50;nan
21869;BME280;11099;41.564;23.296;2022-10-31T10:20:10;98062.25;;;24.97;nan
21869;BME280;11099;41.564;23.296;2022-10-31T10:23:22;98045.53;;;25.20;nan
21869;BME280;11099;41.564;23.296;2022-10-31T10:25:53;98058.34;;;25.59;nan
21869;BME280;11099;41.564;23.296;2022-10-31T10:28:35;98056.03;;;25.75;nan
21869;BME280;11099;41.564;23.296;2022-10-31T10:31:17;98056.41;;;25.81;nan
21869;BME280;11099;41.564;23.296;2022-10-31T10:36:56;98031.47;;;25.75;nan
21869;BME280;11099;41.564;23.296;2022-10-31T10:39:35;98046.16;;;26.17;nan
21869;BME280;11099;41.564;23.296;2022-10-31T10:42:12;98024.63;;;26.34;nan
21869;BME280;11099;41.564;23.296;2022-10-31T10:44:57;98011.56;;;26.70;nan
21869;BME280;11099;41.564;23.296;2022-10-31T10:47:43;98011.91;;;26.02;nan
21869;BME280;11099;41.564;23.296;2022-10-31T10:50:18;98027.13;;;25.92;nan
21869;BME280;11099;41.564;23.296;2022-10-31T10:56:16;98028.59;;;26.15;nan
21869;BME280;11099;41.564;23.296;2022-10-31T10:58:43;98012.41;;;25.54;nan
21869;BME280;11099;41.564;23.296;2022-10-31T11:01:12;98035.78;;;25.02;nan
21869;BME280;11099;41.564;23.296;2022-10-31T11:03:39;98018.25;;;24.74;nan
21869;BME280;11099;41.564;23.296;2022-10-31T11:06:19;98012.78;;;24.60;nan
21869;BME280;11099;41.564;23.296;2022-10-31T11:08:48;98020.56;;;24.65;nan
21869;BME280;11099;41.564;23.296;2022-10-31T11:13:49;98029.56;;;25.26;nan
21869;BME280;11099;41.564;23.296;2022-10-31T11:16:32;98020.16;;;25.70;nan
21869;BME280;11099;41.564;23.296;2022-10-31T11:19:08;98004.22;;;25.54;nan
21869;BME280;11099;41.564;23.296;2022-10-31T11:21:41;97992.53;;;25.75;nan
21869;BME280;11099;41.564;23.296;2022-10-31T11:26:40;98010.41;;;25.87;nan
21869;BME280;11099;41.564;23.296;2022-10-31T11:29:36;98006.44;;;25.98;nan
21869;BME280;11099;41.564;23.296;2022-10-31T11:32:02;97973.25;;;26.14;nan
21869;BME280;11099;41.564;23.296;2022-10-31T11:34:33;98002.44;;;26.28;nan
21869;BME280;11099;41.564;23.296;2022-10-31T11:37:08;97993.19;;;26.04;nan
21869;BME280;11099;41.564;23.296;2022-10-31T11:39:46;97984.25;;;25.93;nan
21869;BME280;11099;41.564;23.296;2022-10-31T11:42:22;97988.59;;;25.83;nan
21869;BME280;11099;41.564;23.296;2022-10-31T11:44:49;97981.31;;;25.34;nan
21869;BME280;11099;41.564;23.296;2022-10-31T11:47:17;97996.81;;;25.62;nan
21869;BME280;11099;41.564;23.296;2022-10-31T11:49:45;97996.03;;;25.79;nan
21869;BME280;11099;41.564;23.296;2022-10-31T11:54:55;97995.97;;;25.93;nan
21869;BME280;11099;41.564;23.296;2022-10-31T11:57:26;97995.22;;;25.82;nan
21869;BME280;11099;41.564;23.296;2022-10-31T11:59:54;97984.63;;;25.98;nan
21869;BME280;11099;41.564;23.296;2022-10-31T12:02:21;97979.31;;;25.52;nan
21869;BME280;11099;41.564;23.296;2022-10-31T12:07:26;97962.94;;;25.66;nan
21869;BME280;11099;41.564;23.296;2022-10-31T12:09:52;97949.13;;;26.09;nan
21869;BME280;11099;41.564;23.296;2022-10-31T12:12:36;97951.31;;;26.43;nan
21869;BME280;11099;41.564;23.296;2022-10-31T12:26:42;97965.69;;;27.44;nan
21869;BME280;11099;41.564;23.296;2022-10-31T12:31:58;97953.59;;;26.96;nan
21869;BME280;11099;41.564;23.296;2022-10-31T12:40:33;97955.72;;;27.26;nan
21869;BME280;11099;41.564;23.296;2022-10-31T12:45:55;97946.25;;;26.90;nan
21869;BME280;11099;41.564;23.296;2022-10-31T12:48:43;97952.91;;;26.85;nan
21869;BME280;11099;41.564;23.296;2022-10-31T12:51:36;97957.94;;;26.94;nan
21869;BME280;11099;41.564;23.296;2022-10-31T12:59:37;97934.84;;;27.43;nan
21869;BME280;11099;41.564;23.296;2022-10-31T13:04:54;97921.38;;;27.25;nan
21869;BME280;11099;41.564;23.296;2022-10-31T13:07:31;97933.19;;;27.49;nan
21869;BME280;11099;41.564;23.296;2022-10-31T13:10:15;97918.25;;;27.23;nan
21869;BME280;11099;41.564;23.296;2022-10-31T13:12:43;97935.97;;;27.08;nan
21869;BME280;11099;41.564;23.296;2022-10-31T13:15:19;97944.19;;;27.04;nan
21869;BME280;11099;41.564;23.296;2022-10-31T13:17:54;97924.22;;;26.63;nan
21869;BME280;11099;41.564;23.296;2022-10-31T13:20:30;97941.03;;;26.58;nan
21869;BME280;11099;41.564;23.296;2022-10-31T13:23:12;97932.00;;;26.68;nan
21869;BME280;11099;41.564;23.296;2022-10-31T13:25:44;97908.59;;;26.67;nan
21869;BME280;11099;41.564;23.296;2022-10-31T13:30:53;97904.41;;;27.00;nan
21869;BME280;11099;41.564;23.296;2022-10-31T13:33:32;97918.66;;;27.22;nan
21869;BME280;11099;41.564;23.296;2022-10-31T13:43:59;97917.38;;;27.30;nan
21869;BME280;11099;41.564;23.296;2022-10-31T13:46:37;97919.03;;;27.24;nan
21869;BME280;11099;41.564;23.296;2022-10-31T13:49:03;97914.66;;;27.30;nan
21869;BME280;11099;41.564;23.296;2022-10-31T13:51:31;97913.47;;;26.90;nan
21869;BME280;11099;41.564;23.296;2022-10-31T13:54:19;97930.63;;;26.94;nan
21869;BME280;11099;41.564;23.296;2022-10-31T13:56:48;97909.31;;;26.74;nan
21869;BME280;11099;41.564;23.296;2022-10-31T13:59:18;97924.31;;;26.52;nan
21869;BME280;11099;41.564;23.296;2022-10-31T14:01:50;97920.16;;;26.33;nan
21869;BME280;11099;41.564;23.296;2022-10-31T14:07:20;97908.84;;;26.31;nan
21869;BME280;11099;41.564;23.296;2022-10-31T14:14:56;97927.72;;;26.67;nan
21869;BME280;11099;41.564;23.296;2022-10-31T14:17:26;97917.38;;;26.44;nan
21869;BME280;11099;41.564;23.296;2022-10-31T14:20:44;97914.25;;;26.38;nan
21869;BME280;11099;41.564;23.296;2022-10-31T14:22:45;97899.69;;;25.96;nan
21869;BME280;11099;41.564;23.296;2022-10-31T14:25:36;97931.59;;;26.10;nan
21869;BME280;11099;41.564;23.296;2022-10-31T14:28:19;97912.69;;;25.64;nan
21869;BME280;11099;41.564;23.296;2022-10-31T14:30:53;97925.47;;;25.81;nan
21869;BME280;11099;41.564;23.296;2022-10-31T14:33:20;97934.44;;;25.85;nan
21869;BME280;11099;41.564;23.296;2022-10-31T14:35:58;97938.75;;;25.79;nan
21869;BME280;11099;41.564;23.296;2022-10-31T14:41:29;97894.38;;;25.64;nan
21869;BME280;11099;41.564;23.296;2022-10-31T14:44:32;97919.25;;;25.88;nan
21869;BME280;11099;41.564;23.296;2022-10-31T14:52:21;97929.00;;;25.82;nan
21869;BME280;11099;41.564;23.296;2022-10-31T14:54:52;97940.19;;;26.01;nan
21869;BME280;11099;41.564;23.296;2022-10-31T14:57:34;97925.47;;;25.88;nan
21869;BME280;11099;41.564;23.296;2022-10-31T15:00:12;97941.44;;;25.90;nan
21869;BME280;11099;41.564;23.296;2022-10-31T15:05:21;97932.66;;;25.25;nan
21869;BME280;11099;41.564;23.296;2022-10-31T15:07:55;97931.13;;;24.95;nan
21869;BME280;11099;41.564;23.296;2022-10-31T15:10:27;97940.88;;;24.89;nan
21869;BME280;11099;41.564;23.296;2022-10-31T15:12:55;97936.56;;;24.60;nan
21869;BME280;11099;41.564;23.296;2022-10-31T15:15:23;97902.28;;;24.19;nan
21869;BME280;11099;41.564;23.296;2022-10-31T15:17:54;97908.47;;;24.06;nan
21869;BME280;11099;41.564;23.296;2022-10-31T15:20:22;97934.16;;;24.26;nan
21869;BME280;11099;41.564;23.296;2022-10-31T15:22:49;97941.13;;;24.09;nan
21869;BME280;11099;41.564;23.296;2022-10-31T15:25:21;97945.00;;;24.05;nan
21869;BME280;11099;41.564;23.296;2022-10-31T15:27:48;97935.28;;;23.97;nan
21869;BME280;11099;41.564;23.296;2022-10-31T15:30:18;97950.00;;;23.85;nan
21869;BME280;11099;41.564;23.296;2022-10-31T15:32:45;97952.22;;;23.65;nan
21869;BME280;11099;41.564;23.296;2022-10-31T15:35:28;97955.34;;;23.63;nan
21869;BME280;11099;41.564;23.296;2022-10-31T15:37:54;97958.34;;;23.48;nan
21869;BME280;11099;41.564;23.296;2022-10-31T15:40:22;97930.63;;;23.21;nan
21869;BME280;11099;41.564;23.296;2022-10-31T15:42:58;97937.56;;;23.14;nan
21869;BME280;11099;41.564;23.296;2022-10-31T15:45:27;97958.84;;;23.05;nan
21869;BME280;11099;41.564;23.296;2022-10-31T15:52:59;97923.16;;;22.59;nan
21869;BME280;11099;41.564;23.296;2022-10-31T15:55:27;97946.47;;;22.64;nan
21869;BME280;11099;41.564;23.296;2022-10-31T15:58:02;97972.56;;;22.79;nan
21869;BME280;11099;41.564;23.296;2022-10-31T16:46:26;60703.47;;;-143.80;100.00
21869;BME280;11099;41.564;23.296;2022-10-31T16:48:53;60703.47;;;-143.80;100.00
21869;BME280;11099;41.564;23.296;2022-10-31T16:51:19;60703.47;;;-143.80;100.00
21869;BME280;11099;41.564;23.296;2022-10-31T17:18:59;60703.47;;;-143.80;100.00
21869;BME280;11099;41.564;23.296;2022-10-31T17:21:24;60703.47;;;-143.80;100.00
21869;BME280;11099;41.564;23.296;2022-10-31T17:28:43;60703.47;;;-143.80;100.00
21869;BME280;11099;41.564;23.296;2022-10-31T17:31:23;60703.47;;;-143.80;100.00
21869;BME280;11099;41.564;23.296;2022-10-31T17:33:54;60703.47;;;-143.80;100.00
21869;BME280;11099;41.564;23.296;2022-10-31T17:41:10;60703.47;;;-143.80;100.00
21869;BME280;11099;41.564;23.296;2022-10-31T17:46:01;60703.47;;;-143.80;100.00
21869;BME280;11099;41.564;23.296;2022-10-31T17:48:27;60703.47;;;-143.80;100.00
21869;BME280;11099;41.564;23.296;2022-10-31T17:50:53;60703.47;;;-143.80;100.00
21869;BME280;11099;41.564;23.296;2022-10-31T17:53:19;60703.47;;;-143.80;100.00
21869;BME280;11099;41.564;23.296;2022-10-31T17:58:10;60703.47;;;-143.80;100.00
21869;BME280;11099;41.564;23.296;2022-10-31T18:11:22;60703.47;;;-143.80;100.00
21869;BME280;11099;41.564;23.296;2022-10-31T18:16:18;60703.47;;;-143.80;100.00
21869;BME280;11099;41.564;23.296;2022-10-31T18:18:44;60703.47;;;-143.80;100.00
21869;BME280;11099;41.564;23.296;2022-10-31T18:21:10;60703.47;;;-143.80;100.00
21869;BME280;11099;41.564;23.296;2022-10-31T18:23:36;60703.47;;;-143.80;100.00
21869;BME280;11099;41.564;23.296;2022-10-31T18:26:02;60703.47;;;-143.80;100.00
21869;BME280;11099;41.564;23.296;2022-10-31T18:28:27;60703.47;;;-143.80;100.00
21869;BME280;11099;41.564;23.296;2022-10-31T18:30:53;60703.47;;;-143.80;100.00
21869;BME280;11099;41.564;23.296;2022-10-31T18:38:11;60703.47;;;-143.80;100.00
21869;BME280;11099;41.564;23.296;2022-10-31T18:40:36;60703.47;;;-143.80;100.00
21869;BME280;11099;41.564;23.296;2022-10-31T18:43:02;60703.47;;;-143.80;100.00
21869;BME280;11099;41.564;23.296;2022-10-31T18:56:45;60703.47;;;-143.80;100.00
21869;BME280;11099;41.564;23.296;2022-10-31T18:59:11;60703.47;;;-143.80;100.00
21869;BME280;11099;41.564;23.296;2022-10-31T19:04:02;60703.47;;;-143.80;100.00
21869;BME280;11099;41.564;23.296;2022-10-31T19:16:51;60703.47;;;-143.80;100.00
21869;BME280;11099;41.564;23.296;2022-10-31T19:19:17;60703.47;;;190.27;100.00
21869;BME280;11099;41.564;23.296;2022-10-31T19:42:32;60703.47;;;-143.80;100.00
21869;BME280;11099;41.564;23.296;2022-10-31T19:44:58;60703.47;;;-143.80;100.00
21869;BME280;11099;41.564;23.296;2022-10-31T19:47:24;60703.47;;;-143.80;100.00
21869;BME280;11099;41.564;23.296;2022-10-31T19:49:50;60703.47;;;-143.80;100.00
21869;BME280;11099;41.564;23.296;2022-10-31T19:52:15;60703.47;;;190.27;100.00
21869;BME280;11099;41.564;23.296;2022-10-31T19:54:41;60703.47;;;-143.80;100.00
21869;BME280;11099;41.564;23.296;2022-10-31T19:57:07;60703.47;;;-143.80;100.00
21869;BME280;11099;41.564;23.296;2022-10-31T20:24:08;60703.47;;;-143.80;100.00
